createdAt,value
2023-03-24T00:00:29.102Z,98787.59
2023-03-24T00:01:10.913Z,98777.16
2023-03-24T00:01:53.000Z,98785.88
2023-03-24T00:02:37.782Z,98785.41
2023-03-24T00:03:19.985Z,98778.84
2023-03-24T00:04:02.031Z,98766.41
2023-03-24T00:04:44.105Z,98781.84
2023-03-24T00:05:28.490Z,98777.09
2023-03-24T00:06:13.701Z,98753.25
2023-03-24T00:06:55.524Z,98772.13
2023-03-24T00:07:39.956Z,98760.53
2023-03-24T00:08:22.580Z,98777.00
2023-03-24T00:09:04.652Z,98775.97
2023-03-24T00:09:46.542Z,98770.41
2023-03-24T00:10:34.435Z,98775.50
2023-03-24T00:11:19.379Z,98761.84
2023-03-24T00:12:01.163Z,98766.25
2023-03-24T00:12:43.002Z,98760.56
2023-03-24T00:13:24.749Z,98765.81
2023-03-24T00:14:06.517Z,98747.03
2023-03-24T00:14:48.302Z,98765.34
2023-03-24T00:15:30.491Z,98764.88
2023-03-24T00:16:14.166Z,98767.31
2023-03-24T00:16:58.560Z,98761.16
2023-03-24T00:17:40.900Z,98763.59
2023-03-24T00:18:25.837Z,98762.56
2023-03-24T00:19:07.706Z,98766.63
2023-03-24T00:19:50.236Z,98761.31
2023-03-24T00:20:32.890Z,98759.81
2023-03-24T00:21:15.742Z,98753.69
2023-03-24T00:21:57.451Z,98751.25
2023-03-24T00:22:42.317Z,98749.94
2023-03-24T00:23:26.428Z,98747.84
2023-03-24T00:24:09.796Z,98753.91
2023-03-24T00:24:51.529Z,98745.41
2023-03-24T00:25:36.296Z,98756.44
2023-03-24T00:26:18.341Z,98750.28
2023-03-24T00:27:01.088Z,98751.31
2023-03-24T00:27:44.878Z,98700.25
2023-03-24T00:28:26.645Z,98751.69
2023-03-24T00:29:13.961Z,98743.94
2023-03-24T00:29:58.980Z,98746.94
2023-03-24T00:30:41.550Z,98747.88
2023-03-24T00:31:24.580Z,98753.19
2023-03-24T00:32:08.050Z,98746.81
2023-03-24T00:32:51.098Z,98727.03
2023-03-24T00:33:35.001Z,98741.16
2023-03-24T00:34:18.240Z,98722.25
2023-03-24T00:35:00.919Z,98733.63
2023-03-24T00:35:44.861Z,98725.28
2023-03-24T00:36:29.042Z,98725.19
2023-03-24T00:37:10.968Z,98725.19
2023-03-24T00:37:52.750Z,98731.56
2023-03-24T00:38:34.989Z,98731.56
2023-03-24T00:39:17.977Z,98716.94
2023-03-24T00:39:59.660Z,98733.41
2023-03-24T00:40:46.272Z,98725.06
2023-03-24T00:41:29.040Z,98716.59
2023-03-24T00:42:10.911Z,98725.50
2023-03-24T00:42:52.904Z,98716.13
2023-03-24T00:43:35.214Z,98721.94
2023-03-24T00:44:19.922Z,98723.41
2023-03-24T00:45:03.962Z,98712.09
2023-03-24T00:45:46.399Z,98712.88
2023-03-24T00:46:28.646Z,98700.00
2023-03-24T00:47:11.537Z,98690.84
2023-03-24T00:47:58.147Z,98703.25
2023-03-24T00:48:42.062Z,98699.50
2023-03-24T00:49:57.546Z,98705.44
2023-03-24T00:50:39.485Z,98695.13
2023-03-24T00:51:21.193Z,98696.97
2023-03-24T00:52:09.877Z,98694.38
2023-03-24T00:52:51.986Z,98690.13
2023-03-24T00:53:35.021Z,98690.59
2023-03-24T00:54:21.777Z,98692.22
2023-03-24T00:55:06.446Z,98698.56
2023-03-24T00:55:49.679Z,98680.22
2023-03-24T00:56:34.280Z,98693.09
2023-03-24T00:57:21.970Z,98694.88
2023-03-24T00:58:04.322Z,98691.03
2023-03-24T00:58:46.122Z,98695.09
2023-03-24T00:59:29.478Z,98687.91
2023-03-24T01:00:14.447Z,98680.97
2023-03-24T01:00:57.532Z,98688.16
2023-03-24T01:01:41.250Z,98694.88
2023-03-24T01:02:27.902Z,98695.69
2023-03-24T01:03:09.874Z,98687.34
2023-03-24T01:03:56.607Z,98691.41
2023-03-24T01:04:41.525Z,98675.38
2023-03-24T01:05:31.214Z,98672.22
2023-03-24T01:06:13.211Z,98667.25
2023-03-24T01:06:58.281Z,98689.78
2023-03-24T01:07:42.357Z,98691.03
2023-03-24T01:08:25.659Z,98677.56
2023-03-24T01:09:07.956Z,98685.94
2023-03-24T01:09:57.590Z,98679.66
2023-03-24T01:10:50.383Z,98673.97
2023-03-24T01:11:38.446Z,98683.84
2023-03-24T01:12:21.620Z,98660.88
2023-03-24T01:13:03.959Z,98674.06
2023-03-24T01:13:45.796Z,98686.88
2023-03-24T01:14:27.573Z,98676.28
2023-03-24T01:15:15.059Z,98688.50
2023-03-24T01:15:57.815Z,98677.72
2023-03-24T01:16:40.629Z,98683.41
2023-03-24T01:17:22.522Z,98675.06
2023-03-24T01:18:04.556Z,98682.59
2023-03-24T01:18:46.441Z,98674.03
2023-03-24T01:19:29.150Z,98663.56
2023-03-24T01:20:11.803Z,98650.81
2023-03-24T01:20:54.181Z,98663.41
2023-03-24T01:21:37.436Z,98665.25
2023-03-24T01:22:20.514Z,98680.91
2023-03-24T01:23:05.660Z,98679.06
2023-03-24T01:23:47.748Z,98661.94
2023-03-24T01:24:29.603Z,98659.50
2023-03-24T01:25:23.192Z,98669.00
2023-03-24T01:26:07.643Z,98659.63
2023-03-24T01:26:49.312Z,98670.13
2023-03-24T01:27:31.747Z,98673.25
2023-03-24T01:28:15.639Z,98671.63
2023-03-24T01:28:57.628Z,98658.06
2023-03-24T01:29:40.583Z,98673.00
2023-03-24T01:30:26.590Z,98657.75
2023-03-24T01:31:09.937Z,98639.22
2023-03-24T01:31:51.969Z,98669.91
2023-03-24T01:32:33.882Z,98671.53
2023-03-24T01:33:15.714Z,98646.75
2023-03-24T01:33:57.448Z,98656.59
2023-03-24T01:34:39.181Z,98663.91
2023-03-24T01:35:22.379Z,98656.53
2023-03-24T01:36:06.074Z,98650.91
2023-03-24T01:36:47.916Z,98643.75
2023-03-24T01:37:29.674Z,98660.56
2023-03-24T01:38:13.685Z,98667.50
2023-03-24T01:38:58.294Z,98674.47
2023-03-24T01:39:40.334Z,98656.75
2023-03-24T01:40:25.306Z,98668.31
2023-03-24T01:41:07.577Z,98657.41
2023-03-24T01:41:49.386Z,98658.00
2023-03-24T01:42:31.352Z,98657.38
2023-03-24T01:43:22.999Z,98652.84
2023-03-24T01:44:26.200Z,98651.97
2023-03-24T01:45:39.357Z,98655.75
2023-03-24T01:46:22.857Z,98656.81
2023-03-24T01:47:08.260Z,98663.72
2023-03-24T01:47:50.393Z,98660.84
2023-03-24T01:48:46.179Z,98647.00
2023-03-24T01:49:34.634Z,98659.38
2023-03-24T01:50:17.872Z,98650.22
2023-03-24T01:51:20.439Z,98653.63
2023-03-24T01:52:07.336Z,98635.50
2023-03-24T01:52:49.126Z,98636.38
2023-03-24T01:53:33.984Z,98633.16
2023-03-24T01:54:27.545Z,98650.72
2023-03-24T01:55:18.685Z,98642.44
2023-03-24T01:56:02.830Z,98648.28
2023-03-24T01:56:55.467Z,98647.69
2023-03-24T01:57:42.988Z,98644.88
2023-03-24T01:58:29.647Z,98646.94
2023-03-24T01:59:38.178Z,98646.94
2023-03-24T02:00:30.365Z,98649.16
2023-03-24T02:02:26.225Z,98653.59
2023-03-24T02:03:18.454Z,98641.47
2023-03-24T02:04:08.281Z,98654.91
2023-03-24T02:04:58.589Z,98647.31
2023-03-24T02:05:48.047Z,98645.25
2023-03-24T02:06:33.241Z,98643.16
2023-03-24T02:07:26.472Z,98634.38
2023-03-24T02:08:18.955Z,98621.25
2023-03-24T02:09:01.532Z,98631.94
2023-03-24T02:09:43.261Z,98624.53
2023-03-24T02:10:25.905Z,98626.44
2023-03-24T02:11:08.777Z,98619.06
2023-03-24T02:12:03.078Z,98620.78
2023-03-24T02:12:46.750Z,98617.84
2023-03-24T02:13:29.804Z,98628.28
2023-03-24T02:14:12.446Z,98616.00
2023-03-24T02:14:54.948Z,98619.38
2023-03-24T02:15:50.733Z,98613.47
2023-03-24T02:16:53.848Z,98622.09
2023-03-24T02:17:48.620Z,98619.34
2023-03-24T02:18:45.013Z,98620.84
2023-03-24T02:19:47.971Z,98604.19
2023-03-24T02:20:29.845Z,98615.53
2023-03-24T02:21:14.262Z,98615.53
2023-03-24T02:22:01.754Z,98612.41
2023-03-24T02:22:58.920Z,98602.91
2023-03-24T02:23:54.092Z,98607.19
2023-03-24T02:25:05.870Z,98608.81
2023-03-24T02:26:12.299Z,98602.66
2023-03-24T02:27:20.507Z,98604.28
2023-03-24T02:28:16.947Z,98607.19
2023-03-24T02:29:17.174Z,98598.63
2023-03-24T02:30:17.705Z,98601.03
2023-03-24T02:31:24.297Z,98601.97
2023-03-24T02:32:21.290Z,98610.53
2023-03-24T02:33:36.986Z,98616.53
2023-03-24T02:34:51.264Z,98622.91
2023-03-24T02:36:03.988Z,98627.19
2023-03-24T02:37:27.369Z,98628.63
2023-03-24T02:38:57.885Z,98618.09
2023-03-24T02:39:42.614Z,98619.44
2023-03-24T02:40:40.736Z,98621.81
2023-03-24T02:41:45.643Z,98618.09
2023-03-24T02:42:56.906Z,98631.47
2023-03-24T02:43:44.155Z,98625.34
2023-03-24T02:44:25.969Z,98625.34
2023-03-24T02:45:22.611Z,98631.03
2023-03-24T02:46:26.960Z,98628.50
2023-03-24T02:47:16.725Z,98623.56
2023-03-24T02:48:22.563Z,98626.00
2023-03-24T02:49:26.151Z,98628.06
2023-03-24T02:50:52.220Z,98621.66
2023-03-24T02:51:50.898Z,98620.69
2023-03-24T02:52:50.348Z,98620.81
2023-03-24T02:53:50.577Z,98624.72
2023-03-24T02:54:52.028Z,98620.81
2023-03-24T02:55:57.137Z,98618.97
2023-03-24T02:56:54.696Z,98610.06
2023-03-24T02:58:01.333Z,98604.31
2023-03-24T02:59:06.221Z,98600.75
2023-03-24T02:59:56.461Z,98599.69
2023-03-24T03:01:13.902Z,98603.22
2023-03-24T03:02:39.908Z,98605.09
2023-03-24T03:03:31.078Z,98604.41
2023-03-24T03:04:19.892Z,98604.41
2023-03-24T03:05:13.870Z,98610.81
2023-03-24T03:06:04.362Z,98612.56
2023-03-24T03:06:52.909Z,98597.53
2023-03-24T03:07:41.282Z,98583.16
2023-03-24T03:08:25.470Z,98597.09
2023-03-24T03:09:11.681Z,98593.94
2023-03-24T03:10:13.638Z,98607.03
2023-03-24T03:10:59.118Z,98597.41
2023-03-24T03:11:46.200Z,98581.28
2023-03-24T03:12:33.433Z,98596.19
2023-03-24T03:13:27.908Z,98596.84
2023-03-24T03:14:15.579Z,98591.44
2023-03-24T03:15:06.883Z,98597.78
2023-03-24T03:15:54.775Z,98590.03
2023-03-24T03:16:46.557Z,98587.16
2023-03-24T03:17:40.476Z,98585.97
2023-03-24T03:18:25.600Z,98590.25
2023-03-24T03:19:38.627Z,98586.19
2023-03-24T03:20:23.271Z,98584.56
2023-03-24T03:21:10.903Z,98568.28
2023-03-24T03:21:53.917Z,98573.63
2023-03-24T03:22:44.051Z,98582.19
2023-03-24T03:23:35.892Z,98577.66
2023-03-24T03:24:32.266Z,98582.41
2023-03-24T03:25:18.100Z,98579.84
2023-03-24T03:26:06.170Z,98576.38
2023-03-24T03:26:49.122Z,98581.09
2023-03-24T03:27:39.049Z,98580.53
2023-03-24T03:28:25.763Z,98580.75
2023-03-24T03:29:16.793Z,98579.94
2023-03-24T03:30:23.353Z,98574.03
2023-03-24T03:31:16.511Z,98563.38
2023-03-24T03:32:07.807Z,98582.91
2023-03-24T03:33:02.398Z,98564.19
2023-03-24T03:33:49.818Z,98559.09
2023-03-24T03:34:32.543Z,98568.94
2023-03-24T03:35:20.608Z,98569.16
2023-03-24T03:36:05.841Z,98569.63
2023-03-24T03:37:17.443Z,98574.72
2023-03-24T03:38:14.027Z,98573.91
2023-03-24T03:39:00.619Z,98581.88
2023-03-24T03:39:55.188Z,98580.25
2023-03-24T03:40:49.772Z,98582.69
2023-03-24T03:41:34.598Z,98594.50
2023-03-24T03:42:16.679Z,98571.13
2023-03-24T03:42:58.704Z,98600.03
2023-03-24T03:43:40.760Z,98596.41
2023-03-24T03:44:23.270Z,98582.63
2023-03-24T03:45:07.239Z,98589.94
2023-03-24T03:45:49.668Z,98597.78
2023-03-24T03:46:36.333Z,98591.53
2023-03-24T03:47:22.859Z,98592.19
2023-03-24T03:48:05.937Z,98596.25
2023-03-24T03:48:47.998Z,98599.41
2023-03-24T03:49:29.989Z,98590.50
2023-03-24T03:50:11.890Z,98586.00
2023-03-24T03:51:10.308Z,98581.38
2023-03-24T03:51:57.305Z,98590.66
2023-03-24T03:52:41.522Z,98596.72
2023-03-24T03:53:28.714Z,98596.00
2023-03-24T03:54:13.547Z,98592.09
2023-03-24T03:54:57.275Z,98586.56
2023-03-24T03:55:39.104Z,98570.47
2023-03-24T03:56:24.209Z,98589.69
2023-03-24T03:57:24.429Z,98588.22
2023-03-24T03:58:24.954Z,98583.25
2023-03-24T03:59:23.351Z,98583.81
2023-03-24T04:00:10.060Z,98592.88
2023-03-24T04:00:55.870Z,98590.09
2023-03-24T04:01:49.866Z,98596.91
2023-03-24T04:03:31.543Z,98608.94
2023-03-24T04:04:59.810Z,98615.16
2023-03-24T04:06:01.925Z,98611.53
2023-03-24T04:07:15.264Z,98634.41
2023-03-24T04:08:19.646Z,98640.97
2023-03-24T04:09:10.210Z,98635.81
2023-03-24T04:09:54.973Z,98639.50
2023-03-24T04:10:51.598Z,98640.38
2023-03-24T04:11:44.752Z,98637.84
2023-03-24T04:13:15.602Z,98637.41
2023-03-24T04:14:25.313Z,98640.72
2023-03-24T04:15:36.040Z,98648.34
2023-03-24T04:17:02.998Z,98652.84
2023-03-24T04:18:12.621Z,98648.34
2023-03-24T04:19:14.139Z,98653.66
2023-03-24T04:19:55.893Z,98652.63
2023-03-24T04:20:48.151Z,98647.75
2023-03-24T04:21:48.665Z,98662.94
2023-03-24T04:22:40.568Z,98666.78
2023-03-24T04:23:40.829Z,98672.25
2023-03-24T04:24:32.742Z,98672.38
2023-03-24T04:25:26.641Z,98666.97
2023-03-24T04:26:17.019Z,98660.78
2023-03-24T04:27:09.311Z,98664.97
2023-03-24T04:28:05.861Z,98671.44
2023-03-24T04:29:18.434Z,98678.28
2023-03-24T04:30:23.323Z,98670.91
2023-03-24T04:31:16.257Z,98663.75
2023-03-24T04:32:04.796Z,98653.28
2023-03-24T04:32:58.585Z,98666.84
2023-03-24T04:33:58.407Z,98647.84
2023-03-24T04:34:50.767Z,98674.81
2023-03-24T04:36:16.888Z,98684.78
2023-03-24T04:37:19.585Z,98667.59
2023-03-24T04:38:27.818Z,98677.88
2023-03-24T04:39:28.998Z,98684.59
2023-03-24T04:40:17.389Z,98677.88
2023-03-24T04:41:01.335Z,98689.47
2023-03-24T04:41:45.467Z,98690.03
2023-03-24T04:42:48.798Z,98677.88
2023-03-24T04:43:36.121Z,98698.03
2023-03-24T04:44:21.803Z,98687.34
2023-03-24T04:45:25.686Z,98690.16
2023-03-24T04:46:40.215Z,98680.88
2023-03-24T04:47:31.890Z,98706.69
2023-03-24T04:48:33.981Z,98703.22
2023-03-24T04:49:41.806Z,98699.28
2023-03-24T04:50:37.419Z,98706.13
2023-03-24T04:51:23.515Z,98696.84
2023-03-24T04:52:18.269Z,98699.78
2023-03-24T04:53:00.642Z,98713.25
2023-03-24T04:53:43.223Z,98702.31
2023-03-24T04:54:24.949Z,98723.06
2023-03-24T04:55:34.640Z,98713.69
2023-03-24T04:56:31.210Z,98720.72
2023-03-24T04:57:16.911Z,98714.31
2023-03-24T04:58:02.143Z,98712.31
2023-03-24T04:58:43.866Z,98727.63
2023-03-24T04:59:26.094Z,98707.22
2023-03-24T05:00:09.050Z,98720.94
2023-03-24T05:00:52.370Z,98710.75
2023-03-24T05:01:37.364Z,98715.66
2023-03-24T05:02:45.145Z,98711.44
2023-03-24T05:03:37.811Z,98698.28
2023-03-24T05:04:21.962Z,98704.16
2023-03-24T05:05:04.008Z,98687.34
2023-03-24T05:05:52.240Z,98713.75
2023-03-24T05:06:34.334Z,98704.03
2023-03-24T05:07:17.482Z,98705.06
2023-03-24T05:08:01.952Z,98697.53
2023-03-24T05:08:43.641Z,98707.50
2023-03-24T05:09:25.935Z,98717.47
2023-03-24T05:10:08.448Z,98693.72
2023-03-24T05:10:56.334Z,98724.41
2023-03-24T05:11:38.138Z,98700.66
2023-03-24T05:12:23.192Z,98729.31
2023-03-24T05:13:31.706Z,98730.94
2023-03-24T05:14:16.943Z,98729.69
2023-03-24T05:14:58.857Z,98731.31
2023-03-24T05:15:41.348Z,98720.38
2023-03-24T05:16:39.139Z,98700.13
2023-03-24T05:17:20.920Z,98730.84
2023-03-24T05:18:03.969Z,98730.28
2023-03-24T05:18:45.949Z,98725.22
2023-03-24T05:19:27.636Z,98737.44
2023-03-24T05:20:11.008Z,98732.13
2023-03-24T05:20:55.139Z,98734.19
2023-03-24T05:21:37.412Z,98734.19
2023-03-24T05:22:20.819Z,98723.19
2023-03-24T05:23:03.170Z,98714.25
2023-03-24T05:23:44.875Z,98722.28
2023-03-24T05:24:26.733Z,98715.56
2023-03-24T05:25:09.144Z,98723.91
2023-03-24T05:25:51.194Z,98708.84
2023-03-24T05:26:36.293Z,98705.50
2023-03-24T05:27:33.600Z,98711.53
2023-03-24T05:28:25.256Z,98720.47
2023-03-24T05:29:09.186Z,98696.34
2023-03-24T05:29:50.954Z,98711.66
2023-03-24T05:30:37.660Z,98712.78
2023-03-24T05:31:32.203Z,98721.00
2023-03-24T05:32:20.600Z,98711.28
2023-03-24T05:33:02.431Z,98712.19
2023-03-24T05:33:44.324Z,98716.16
2023-03-24T05:34:31.019Z,98730.75
2023-03-24T05:35:26.442Z,98733.19
2023-03-24T05:36:09.085Z,98736.44
2023-03-24T05:36:51.126Z,98745.00
2023-03-24T05:37:35.899Z,98724.63
2023-03-24T05:38:19.091Z,98735.41
2023-03-24T05:39:04.315Z,98719.75
2023-03-24T05:39:56.762Z,98731.56
2023-03-24T05:40:49.019Z,98740.25
2023-03-24T05:41:32.842Z,98731.13
2023-03-24T05:42:16.189Z,98728.69
2023-03-24T05:42:57.871Z,98730.31
2023-03-24T05:43:42.735Z,98730.56
2023-03-24T05:44:29.973Z,98740.63
2023-03-24T05:45:19.362Z,98731.44
2023-03-24T05:46:01.121Z,98723.81
2023-03-24T05:46:46.134Z,98742.56
2023-03-24T05:47:27.901Z,98724.25
2023-03-24T05:48:10.156Z,98725.06
2023-03-24T05:49:10.671Z,98731.94
2023-03-24T05:49:55.734Z,98723.81
2023-03-24T05:50:37.650Z,98723.66
2023-03-24T05:51:19.350Z,98707.59
2023-03-24T05:52:09.086Z,98729.50
2023-03-24T05:52:52.649Z,98711.53
2023-03-24T05:54:00.169Z,98722.91
2023-03-24T05:54:52.138Z,98710.06
2023-03-24T05:55:37.615Z,98713.84
2023-03-24T05:56:32.636Z,98722.78
2023-03-24T05:57:34.686Z,98718.72
2023-03-24T05:58:34.529Z,98717.03
2023-03-24T05:59:16.238Z,98710.16
2023-03-24T06:00:16.316Z,98718.88
2023-03-24T06:01:20.907Z,98710.66
2023-03-24T06:02:07.749Z,98700.31
2023-03-24T06:03:06.815Z,98716.09
2023-03-24T06:03:55.601Z,98711.69
2023-03-24T06:04:38.221Z,98721.41
2023-03-24T06:05:27.492Z,98719.13
2023-03-24T06:06:16.396Z,98723.41
2023-03-24T06:07:00.962Z,98705.66
2023-03-24T06:07:46.732Z,98720.84
2023-03-24T06:08:33.726Z,98719.25
2023-03-24T06:09:16.893Z,98709.16
2023-03-24T06:10:03.129Z,98723.78
2023-03-24T06:10:53.454Z,98717.84
2023-03-24T06:11:35.827Z,98724.22
2023-03-24T06:12:22.761Z,98726.66
2023-03-24T06:13:09.900Z,98713.66
2023-03-24T06:13:59.069Z,98710.31
2023-03-24T06:14:41.013Z,98718.75
2023-03-24T06:15:27.828Z,98714.47
2023-03-24T06:16:14.783Z,98696.03
2023-03-24T06:17:14.516Z,98713.44
2023-03-24T06:17:57.875Z,98714.84
2023-03-24T06:18:52.519Z,98700.47
2023-03-24T06:20:02.646Z,98716.81
2023-03-24T06:21:32.558Z,98700.34
2023-03-24T06:22:16.393Z,98720.06
2023-03-24T06:22:59.874Z,98720.06
2023-03-24T06:23:47.745Z,98705.69
2023-03-24T06:24:34.215Z,98708.34
2023-03-24T06:25:21.529Z,98707.09
2023-03-24T06:26:16.661Z,98707.09
2023-03-24T06:27:08.962Z,98702.34
2023-03-24T06:27:52.066Z,98692.50
2023-03-24T06:28:39.715Z,98698.88
2023-03-24T06:29:31.674Z,98685.09
2023-03-24T06:30:17.728Z,98691.94
2023-03-24T06:30:59.460Z,98684.88
2023-03-24T06:31:50.707Z,98695.19
2023-03-24T06:32:32.844Z,98702.72
2023-03-24T06:33:15.684Z,98707.09
2023-03-24T06:33:59.221Z,98699.47
2023-03-24T06:34:40.893Z,98703.41
2023-03-24T06:35:42.957Z,98696.34
2023-03-24T06:36:28.990Z,98695.63
2023-03-24T06:37:10.831Z,98706.28
2023-03-24T06:37:52.553Z,98695.53
2023-03-24T06:38:34.246Z,98704.69
2023-03-24T06:39:18.238Z,98703.75
2023-03-24T06:40:00.281Z,98707.91
2023-03-24T06:40:45.066Z,98710.34
2023-03-24T06:41:27.088Z,98712.78
2023-03-24T06:42:12.895Z,98712.78
2023-03-24T06:42:54.593Z,98715.66
2023-03-24T06:43:36.872Z,98701.66
2023-03-24T06:44:18.619Z,98700.28
2023-03-24T06:45:00.447Z,98700.72
2023-03-24T06:45:44.505Z,98707.81
2023-03-24T06:46:32.800Z,98717.44
2023-03-24T06:47:14.574Z,98719.97
2023-03-24T06:47:56.709Z,98700.50
2023-03-24T06:48:41.902Z,98707.09
2023-03-24T06:49:24.131Z,98722.41
2023-03-24T06:50:07.075Z,98726.91
2023-03-24T06:50:51.762Z,98717.19
2023-03-24T06:51:33.489Z,98729.81
2023-03-24T06:52:15.658Z,98724.38
2023-03-24T06:52:57.561Z,98722.41
2023-03-24T06:53:41.282Z,98707.09
2023-03-24T06:54:23.032Z,98709.66
2023-03-24T06:55:06.140Z,98727.50
2023-03-24T06:55:51.490Z,98728.91
2023-03-24T06:56:35.211Z,98721.00
2023-03-24T06:57:17.944Z,98731.78
2023-03-24T06:58:18.541Z,98711.88
2023-03-24T06:59:23.693Z,98730.75
2023-03-24T07:00:06.822Z,98733.19
2023-03-24T07:00:53.775Z,98729.81
2023-03-24T07:01:55.900Z,98713.94
2023-03-24T07:02:40.488Z,98723.78
2023-03-24T07:03:23.486Z,98710.47
2023-03-24T07:04:25.735Z,98723.66
2023-03-24T07:05:11.034Z,98716.13
2023-03-24T07:05:57.183Z,98718.47
2023-03-24T07:06:46.669Z,98723.56
2023-03-24T07:08:50.041Z,98718.78
2023-03-24T07:09:32.650Z,98730.16
2023-03-24T07:10:14.636Z,98717.53
2023-03-24T07:10:57.058Z,98731.78
2023-03-24T07:11:39.620Z,98725.28
2023-03-24T07:12:21.539Z,98719.38
2023-03-24T07:13:04.286Z,98731.88
2023-03-24T07:13:47.892Z,98728.66
2023-03-24T07:14:30.822Z,98725.75
2023-03-24T07:15:13.159Z,98743.25
2023-03-24T07:15:56.581Z,98734.78
2023-03-24T07:16:38.436Z,98750.66
2023-03-24T07:17:42.880Z,98745.34
2023-03-24T07:18:47.186Z,98741.41
2023-03-24T07:19:29.494Z,98734.31
2023-03-24T07:20:29.793Z,98747.31
2023-03-24T07:21:28.833Z,98747.31
2023-03-24T07:22:10.547Z,98735.34
2023-03-24T07:23:13.082Z,98751.03
2023-03-24T07:24:11.418Z,98736.41
2023-03-24T07:25:19.948Z,98745.78
2023-03-24T07:26:07.346Z,98738.50
2023-03-24T07:27:05.586Z,98763.03
2023-03-24T07:27:49.710Z,98760.97
2023-03-24T07:28:32.185Z,98737.56
2023-03-24T07:29:14.128Z,98754.59
2023-03-24T07:30:39.938Z,98762.50
2023-03-24T07:31:24.629Z,98739.41
2023-03-24T07:32:13.206Z,98748.69
2023-03-24T07:32:56.725Z,98755.41
2023-03-24T07:33:38.540Z,98743.63
2023-03-24T07:34:21.160Z,98757.38
2023-03-24T07:35:04.240Z,98760.41
2023-03-24T07:35:46.511Z,98759.81
2023-03-24T07:36:28.578Z,98751.13
2023-03-24T07:37:11.917Z,98762.94
2023-03-24T07:37:57.943Z,98761.09
2023-03-24T07:38:39.790Z,98758.06
2023-03-24T07:39:26.280Z,98745.91
2023-03-24T07:40:12.059Z,98765.63
2023-03-24T07:40:54.006Z,98756.22
2023-03-24T07:41:35.761Z,98749.72
2023-03-24T07:42:23.108Z,98735.25
2023-03-24T07:43:37.058Z,98761.69
2023-03-24T07:44:32.153Z,98743.94
2023-03-24T07:45:15.569Z,98761.78
2023-03-24T07:45:57.286Z,98741.50
2023-03-24T07:46:43.261Z,98755.75
2023-03-24T07:47:27.518Z,98751.03
2023-03-24T07:48:10.636Z,98750.31
2023-03-24T07:48:53.107Z,98765.16
2023-03-24T07:49:35.205Z,98761.53
2023-03-24T07:50:20.567Z,98753.19
2023-03-24T07:51:02.283Z,98723.22
2023-03-24T07:52:09.896Z,98747.09
2023-03-24T07:53:04.600Z,98742.09
2023-03-24T07:53:47.714Z,98749.84
2023-03-24T07:54:36.668Z,98740.78
2023-03-24T07:55:18.408Z,98746.03
2023-03-24T07:56:10.232Z,98744.28
2023-03-24T07:56:59.311Z,98750.78
2023-03-24T07:57:42.201Z,98733.38
2023-03-24T07:58:23.937Z,98727.34
2023-03-24T07:59:28.680Z,98730.22
2023-03-24T08:00:32.914Z,98709.34
2023-03-24T08:01:25.468Z,98725.91
2023-03-24T08:02:21.217Z,98713.72
2023-03-24T08:03:38.717Z,98706.59
2023-03-24T08:04:35.131Z,98694.47
2023-03-24T08:05:24.852Z,98698.84
2023-03-24T08:06:14.792Z,98707.03
2023-03-24T08:07:08.351Z,98680.75
2023-03-24T08:07:55.606Z,98704.00
2023-03-24T08:08:37.933Z,98687.00
2023-03-24T08:09:20.037Z,98704.06
2023-03-24T08:10:01.731Z,98702.78
2023-03-24T08:10:45.963Z,98684.03
2023-03-24T08:11:27.956Z,98705.56
2023-03-24T08:12:17.784Z,98698.03
2023-03-24T08:13:02.493Z,98694.06
2023-03-24T08:13:44.281Z,98713.97
2023-03-24T08:14:26.359Z,98716.53
2023-03-24T08:15:09.463Z,98726.44
2023-03-24T08:15:53.191Z,98712.88
2023-03-24T08:16:34.882Z,98701.22
2023-03-24T08:17:16.528Z,98720.59
2023-03-24T08:17:58.379Z,98705.16
2023-03-24T08:18:40.327Z,98739.25
2023-03-24T08:19:22.099Z,98718.50
2023-03-24T08:20:09.170Z,98712.88
2023-03-24T08:20:58.503Z,98729.28
2023-03-24T08:21:40.163Z,98718.44
2023-03-24T08:22:21.805Z,98727.25
2023-03-24T08:23:04.845Z,98727.81
2023-03-24T08:23:46.771Z,98717.03
2023-03-24T08:24:28.435Z,98709.38
2023-03-24T08:25:12.813Z,98716.66
2023-03-24T08:25:54.647Z,98721.75
2023-03-24T08:26:36.412Z,98722.34
2023-03-24T08:27:18.181Z,98723.16
2023-03-24T08:27:59.902Z,98712.13
2023-03-24T08:28:42.568Z,98724.06
2023-03-24T08:29:24.459Z,98724.59
2023-03-24T08:30:08.785Z,98730.75
2023-03-24T08:30:50.865Z,98708.75
2023-03-24T08:31:34.225Z,98728.09
2023-03-24T08:32:16.001Z,98714.34
2023-03-24T08:32:59.927Z,98735.78
2023-03-24T08:33:41.758Z,98731.97
2023-03-24T08:34:24.934Z,98722.50
2023-03-24T08:35:07.121Z,98710.31
2023-03-24T08:35:49.172Z,98713.47
2023-03-24T08:36:31.779Z,98734.44
2023-03-24T08:37:13.543Z,98731.19
2023-03-24T08:38:06.056Z,98733.28
2023-03-24T08:38:51.723Z,98735.16
2023-03-24T08:39:35.903Z,98724.41
2023-03-24T08:40:23.159Z,98732.47
2023-03-24T08:41:06.973Z,98741.75
2023-03-24T08:41:50.142Z,98730.09
2023-03-24T08:42:31.923Z,98728.69
2023-03-24T08:43:15.933Z,98736.53
2023-03-24T08:43:57.639Z,98710.72
2023-03-24T08:44:39.400Z,98724.34
2023-03-24T08:45:23.796Z,98729.44
2023-03-24T08:46:09.640Z,98723.78
2023-03-24T08:46:52.470Z,98720.34
2023-03-24T08:47:34.550Z,98734.72
2023-03-24T08:48:16.510Z,98737.97
2023-03-24T08:48:59.701Z,98735.28
2023-03-24T08:49:41.400Z,98729.84
2023-03-24T08:50:27.919Z,98732.13
2023-03-24T08:51:14.939Z,98734.69
2023-03-24T08:51:56.665Z,98723.34
2023-03-24T08:52:38.604Z,98728.09
2023-03-24T08:53:20.687Z,98744.88
2023-03-24T08:54:03.871Z,98720.91
2023-03-24T08:54:45.729Z,98735.59
2023-03-24T08:55:27.487Z,98740.94
2023-03-24T08:56:10.410Z,98743.34
2023-03-24T08:56:52.268Z,98748.13
2023-03-24T08:57:34.282Z,98761.34
2023-03-24T08:58:18.844Z,98738.66
2023-03-24T08:59:00.628Z,98751.66
2023-03-24T08:59:42.580Z,98774.81
2023-03-24T09:00:24.635Z,98763.59
2023-03-24T09:01:06.469Z,98756.06
2023-03-24T09:01:48.268Z,98740.44
2023-03-24T09:02:30.085Z,98751.31
2023-03-24T09:03:18.710Z,98751.88
2023-03-24T09:04:00.774Z,98746.31
2023-03-24T09:04:42.999Z,98753.47
2023-03-24T09:05:40.822Z,98748.94
2023-03-24T09:06:27.319Z,98756.50
2023-03-24T09:07:10.451Z,98753.13
2023-03-24T09:07:52.580Z,98748.03
2023-03-24T09:08:34.298Z,98728.91
2023-03-24T09:09:16.240Z,98747.88
2023-03-24T09:09:57.987Z,98741.72
2023-03-24T09:10:40.835Z,98735.25
2023-03-24T09:11:22.760Z,98738.59
2023-03-24T09:12:04.660Z,98728.28
2023-03-24T09:12:46.973Z,98731.53
2023-03-24T09:13:28.832Z,98745.31
2023-03-24T09:14:10.749Z,98728.53
2023-03-24T09:14:52.543Z,98721.34
2023-03-24T09:15:34.397Z,98747.03
2023-03-24T09:16:17.745Z,98744.09
2023-03-24T09:16:59.481Z,98742.00
2023-03-24T09:17:44.478Z,98738.47
2023-03-24T09:18:26.490Z,98740.97
2023-03-24T09:19:08.488Z,98746.53
2023-03-24T09:19:50.180Z,98740.63
2023-03-24T09:20:31.994Z,98745.59
2023-03-24T09:21:13.635Z,98742.94
2023-03-24T09:21:55.330Z,98737.25
2023-03-24T09:22:42.784Z,98746.25
2023-03-24T09:23:29.307Z,98722.53
2023-03-24T09:24:10.953Z,98731.78
2023-03-24T09:24:53.385Z,98741.53
2023-03-24T09:25:35.036Z,98736.44
2023-03-24T09:26:19.491Z,98750.47
2023-03-24T09:27:01.242Z,98729.25
2023-03-24T09:27:43.186Z,98740.34
2023-03-24T09:28:24.939Z,98738.41
2023-03-24T09:29:07.495Z,98720.38
2023-03-24T09:29:49.175Z,98726.53